Portada
METAR-TAF:

METAR-TAF

Aeropuertos :

Qazvin, Irán

latitud: 36-15N, longitud: 050-00E, altitud: 1278 m

Observación

El informe se hizo hace 19 minutos, a las 12:00 UTC
Viento 4 kt del este-sureste
Temperatura 4°C
Humedad 32%
Presión 1017 hPa
Visibilidad 10 km o más
sin nubes por debajo de 1500 m y sin presencia de cumulonimbus.

METAR: OIIK 221200Z 12004KT CAVOK 04/M11 Q1017

Hora: 15:49 (12:19 UTC)


TAF: falta

Observaciones y pronósticos meteorológicos de más de 4000 aeropuertos (mensajes METAR y TAF).

Los puntos amarillos y rojos representan las estaciones disponibles.

Ponga el ratón en el punto deseado para ver el nombre de la estación.

Haga clic para ver las observaciones y los pronósticos meteorológicos.

Para cambiar el mapa : haga clic en los botones verdes con una cruz de color negro para hacer un zoom, en el botón verde con un guión para alejar o en las flechas verdes para mapas adyacentes.


METAR-TAF: